createdAt,value
2022-10-18T00:01:03.206Z,38.40
2022-10-18T00:03:30.359Z,34.60
2022-10-18T00:05:57.873Z,33.20
2022-10-18T00:08:27.485Z,29.60
2022-10-18T00:10:54.464Z,36.20
2022-10-18T00:13:21.400Z,40.90
2022-10-18T00:15:56.730Z,38.30
2022-10-18T00:18:24.312Z,38.90
2022-10-18T00:21:03.988Z,38.40
2022-10-18T00:23:31.397Z,34.50
2022-10-18T00:26:08.394Z,32.90
2022-10-18T00:28:39.183Z,29.70
2022-10-18T00:31:26.142Z,32.80
2022-10-18T00:34:00.803Z,30.50
2022-10-18T00:36:28.970Z,32.00
2022-10-18T00:38:56.018Z,32.50
2022-10-18T00:41:28.284Z,34.80
2022-10-18T00:44:02.513Z,28.00
2022-10-18T00:46:37.943Z,29.60
2022-10-18T00:49:08.068Z,38.00
2022-10-18T00:51:40.232Z,42.70
2022-10-18T00:54:10.327Z,41.70
2022-10-18T00:56:37.658Z,37.70
2022-10-18T00:59:04.694Z,35.40
2022-10-18T01:01:32.384Z,31.60
2022-10-18T01:03:59.374Z,30.70
2022-10-18T01:06:28.396Z,33.20
2022-10-18T01:09:01.189Z,29.60
2022-10-18T01:11:37.244Z,34.00
2022-10-18T01:14:36.114Z,33.90
2022-10-18T01:17:32.540Z,37.00
2022-10-18T01:20:07.611Z,36.50
2022-10-18T01:22:49.909Z,29.20
2022-10-18T01:25:39.122Z,38.00
2022-10-18T01:28:18.446Z,49.50
2022-10-18T01:30:59.533Z,54.80
2022-10-18T01:33:34.337Z,61.30
2022-10-18T01:36:06.197Z,51.00
2022-10-18T01:38:33.238Z,52.00
2022-10-18T01:41:00.693Z,48.10
2022-10-18T01:43:27.661Z,41.60
2022-10-18T01:45:54.918Z,35.30
2022-10-18T01:48:22.041Z,38.80
2022-10-18T01:50:49.408Z,45.00
2022-10-18T01:53:28.104Z,36.20
2022-10-18T01:56:01.713Z,33.90
2022-10-18T01:58:33.348Z,34.50
2022-10-18T02:01:21.135Z,38.80
2022-10-18T02:03:48.126Z,38.50
2022-10-18T02:06:26.330Z,30.50
2022-10-18T02:09:08.372Z,30.70
2022-10-18T02:11:36.544Z,25.70
2022-10-18T02:14:08.884Z,27.70
2022-10-18T02:16:43.679Z,30.80
2022-10-18T02:19:15.980Z,35.70
2022-10-18T02:21:43.753Z,32.60
2022-10-18T02:24:12.850Z,32.30
2022-10-18T02:26:39.891Z,29.90
2022-10-18T02:29:07.041Z,32.80
2022-10-18T02:31:47.313Z,31.60
2022-10-18T02:34:21.121Z,29.60
2022-10-18T02:36:49.492Z,32.50
2022-10-18T02:39:22.504Z,31.00
2022-10-18T02:41:49.558Z,26.20
2022-10-18T02:44:16.550Z,25.50
2022-10-18T02:46:43.505Z,26.10
2022-10-18T02:49:10.554Z,27.00
2022-10-18T02:51:37.873Z,29.50
2022-10-18T02:54:05.032Z,31.10
2022-10-18T02:56:32.162Z,28.10
2022-10-18T02:58:59.149Z,34.60
2022-10-18T03:01:26.205Z,37.10
2022-10-18T03:03:53.292Z,32.10
2022-10-18T03:06:20.619Z,28.30
2022-10-18T03:08:47.558Z,32.20
2022-10-18T03:11:17.694Z,35.70
2022-10-18T03:13:46.096Z,38.50
2022-10-18T03:16:13.535Z,34.90
2022-10-18T03:18:44.319Z,29.20
2022-10-18T03:21:11.737Z,24.50
2022-10-18T03:23:38.721Z,26.70
2022-10-18T03:26:06.826Z,26.90
2022-10-18T03:28:34.300Z,29.10
2022-10-18T03:31:02.450Z,32.70
2022-10-18T03:33:30.462Z,29.10
2022-10-18T03:35:58.389Z,33.10
2022-10-18T03:38:25.382Z,26.30
2022-10-18T03:40:53.334Z,24.00
2022-10-18T03:43:20.221Z,29.40
2022-10-18T03:45:47.149Z,26.60
2022-10-18T03:48:14.277Z,32.20
2022-10-18T03:50:43.410Z,28.90
2022-10-18T03:53:10.490Z,31.20
2022-10-18T03:55:38.431Z,29.70
2022-10-18T03:58:05.364Z,30.40
2022-10-18T04:00:34.360Z,32.30
2022-10-18T04:03:01.501Z,32.20
2022-10-18T04:05:31.281Z,29.20
2022-10-18T04:07:58.418Z,30.50
2022-10-18T04:10:25.942Z,31.50
2022-10-18T04:12:55.538Z,31.80
2022-10-18T04:15:22.441Z,37.90
2022-10-18T04:17:49.394Z,28.60
2022-10-18T04:20:16.906Z,29.50
2022-10-18T04:22:43.829Z,36.60
2022-10-18T04:25:10.848Z,40.00
2022-10-18T04:27:37.909Z,34.70
2022-10-18T04:30:05.403Z,37.30
2022-10-18T04:32:35.160Z,38.70
2022-10-18T04:35:03.280Z,33.10
2022-10-18T04:37:30.879Z,30.00
2022-10-18T04:39:58.317Z,32.40
2022-10-18T04:42:25.423Z,32.10
2022-10-18T04:44:52.957Z,32.70
2022-10-18T04:47:20.104Z,31.90
2022-10-18T04:49:47.518Z,31.80
2022-10-18T04:52:15.099Z,30.60
2022-10-18T04:54:42.122Z,31.40
2022-10-18T04:57:09.269Z,26.20
2022-10-18T04:59:37.270Z,27.50
2022-10-18T05:02:04.970Z,28.90
2022-10-18T05:04:32.040Z,28.70
2022-10-18T05:06:59.129Z,35.90
2022-10-18T05:09:28.540Z,38.40
2022-10-18T05:11:56.392Z,40.90
2022-10-18T05:14:24.152Z,35.80
2022-10-18T05:16:53.895Z,32.50
2022-10-18T05:19:21.603Z,34.90
2022-10-18T05:21:48.557Z,40.80
2022-10-18T05:24:15.565Z,33.60
2022-10-18T05:26:46.344Z,35.80
2022-10-18T05:29:13.857Z,44.10
2022-10-18T05:31:40.909Z,42.30
2022-10-18T05:34:07.929Z,42.40
2022-10-18T05:36:34.958Z,38.00
2022-10-18T05:39:05.645Z,38.10
2022-10-18T05:41:32.805Z,53.10
2022-10-18T05:44:03.786Z,76.10
2022-10-18T05:48:57.894Z,49.40
2022-10-18T05:51:25.450Z,38.00
2022-10-18T05:53:54.832Z,35.10
2022-10-18T05:56:22.544Z,37.00
2022-10-18T05:58:52.771Z,48.80
2022-10-18T06:01:19.931Z,66.60
2022-10-18T06:03:47.135Z,64.80
2022-10-18T06:06:15.876Z,66.20
2022-10-18T06:08:43.375Z,52.60
2022-10-18T06:11:17.621Z,47.00
2022-10-18T06:13:49.342Z,44.90
2022-10-18T06:16:18.842Z,39.20
2022-10-18T06:18:50.278Z,39.40
2022-10-18T06:23:49.202Z,38.00
2022-10-18T06:26:16.220Z,43.10
2022-10-18T06:28:43.764Z,37.90
2022-10-18T06:31:11.183Z,37.20
2022-10-18T06:33:38.466Z,32.10
2022-10-18T06:36:18.505Z,34.50
2022-10-18T06:38:47.796Z,32.70
2022-10-18T06:41:14.957Z,32.10
2022-10-18T06:43:42.272Z,32.60
2022-10-18T06:46:09.277Z,36.20
2022-10-18T06:48:36.595Z,41.20
2022-10-18T06:51:05.451Z,34.00
2022-10-18T06:53:40.760Z,32.10
2022-10-18T06:56:12.818Z,35.10
2022-10-18T06:58:40.939Z,32.60
2022-10-18T07:01:18.537Z,40.80
2022-10-18T07:03:47.110Z,30.50
2022-10-18T07:06:14.989Z,32.40
2022-10-18T07:08:41.958Z,31.60
2022-10-18T07:11:09.318Z,39.60
2022-10-18T07:13:36.298Z,29.10
2022-10-18T07:16:06.049Z,32.50
2022-10-18T07:18:34.614Z,37.90
2022-10-18T07:21:06.015Z,44.50
2022-10-18T07:23:34.794Z,37.70
2022-10-18T07:26:02.301Z,42.20
2022-10-18T07:28:30.218Z,41.10
2022-10-18T07:30:57.205Z,40.90
2022-10-18T07:33:25.970Z,34.60
2022-10-18T07:35:52.881Z,34.80
2022-10-18T07:38:20.084Z,31.20
2022-10-18T07:40:47.064Z,31.70
2022-10-18T07:43:15.069Z,35.90
2022-10-18T07:45:42.907Z,37.20
2022-10-18T07:48:09.770Z,34.20
2022-10-18T07:50:38.086Z,53.90
2022-10-18T07:53:05.103Z,42.90
2022-10-18T07:55:32.022Z,36.80
2022-10-18T07:58:00.467Z,43.90
2022-10-18T08:00:27.638Z,51.40
2022-10-18T08:02:58.302Z,49.90
2022-10-18T08:07:53.818Z,34.70
2022-10-18T08:10:22.081Z,33.80
2022-10-18T08:12:53.298Z,42.50
2022-10-18T08:15:24.003Z,50.90
2022-10-18T08:17:52.131Z,45.70
2022-10-18T08:20:30.422Z,50.30
2022-10-18T08:23:00.306Z,46.80
2022-10-18T08:25:28.781Z,54.10
2022-10-18T08:27:56.903Z,51.20
2022-10-18T08:30:24.063Z,55.20
2022-10-18T08:32:52.282Z,52.20
2022-10-18T08:35:19.493Z,45.00
2022-10-18T08:37:48.602Z,50.30
2022-10-18T08:40:15.615Z,42.30
2022-10-18T08:43:07.287Z,44.70
2022-10-18T08:45:43.348Z,47.40
2022-10-18T08:48:19.012Z,34.80
2022-10-18T08:50:47.247Z,37.70
2022-10-18T08:53:36.260Z,33.30
2022-10-18T08:56:15.042Z,31.50
2022-10-18T08:58:45.130Z,32.40
2022-10-18T09:01:15.733Z,35.90
2022-10-18T09:04:21.424Z,37.70
2022-10-18T09:06:48.909Z,43.20
2022-10-18T09:09:34.531Z,38.50
2022-10-18T09:12:08.755Z,33.00
2022-10-18T09:14:35.730Z,43.60
2022-10-18T09:17:35.641Z,33.90
2022-10-18T09:20:27.059Z,34.50
2022-10-18T09:23:02.641Z,32.40
2022-10-18T09:25:37.184Z,31.30
2022-10-18T09:28:14.111Z,26.80
2022-10-18T09:31:05.481Z,41.10
2022-10-18T09:33:55.498Z,32.70
2022-10-18T09:36:28.107Z,41.40
2022-10-18T09:38:59.881Z,57.60
2022-10-18T09:41:41.313Z,38.40
2022-10-18T09:44:31.949Z,30.30
2022-10-18T09:47:22.637Z,30.10
2022-10-18T09:49:56.855Z,36.50
2022-10-18T09:52:27.674Z,72.50
2022-10-18T09:54:57.309Z,31.20
2022-10-18T09:59:00.285Z,22.20
2022-10-18T10:01:30.772Z,25.10
2022-10-18T10:03:58.564Z,23.10
2022-10-18T10:06:26.796Z,15.10
2022-10-18T10:09:01.424Z,8.90
2022-10-18T10:11:40.236Z,8.60
2022-10-18T10:14:09.038Z,11.10
2022-10-18T10:16:43.767Z,9.70
2022-10-18T10:19:40.381Z,9.10
2022-10-18T10:22:12.697Z,11.00
2022-10-18T10:24:49.961Z,9.50
2022-10-18T10:27:49.202Z,9.20
2022-10-18T10:30:29.466Z,12.30
2022-10-18T10:32:59.824Z,19.10
2022-10-18T10:35:53.417Z,16.00
2022-10-18T10:38:28.729Z,21.90
2022-10-18T10:40:56.311Z,8.40
2022-10-18T10:43:38.834Z,8.40
2022-10-18T10:46:13.173Z,83.80
2022-10-18T10:49:15.415Z,27.60
2022-10-18T10:51:43.681Z,24.10
2022-10-18T10:54:16.438Z,30.10
2022-10-18T10:57:04.395Z,11.00
2022-10-18T10:59:39.000Z,7.00
2022-10-18T11:02:18.282Z,17.50
2022-10-18T11:04:46.729Z,35.00
2022-10-18T11:07:21.961Z,12.20
2022-10-18T11:10:10.469Z,10.90
2022-10-18T11:12:42.742Z,60.20
2022-10-18T11:15:10.605Z,10.80
2022-10-18T11:17:57.932Z,21.30
2022-10-18T11:20:30.270Z,25.80
2022-10-18T11:23:00.374Z,12.50
2022-10-18T11:25:56.882Z,8.80
2022-10-18T11:28:36.361Z,11.40
2022-10-18T11:31:27.723Z,14.70
2022-10-18T11:34:16.465Z,17.60
2022-10-18T11:37:22.889Z,14.90
2022-10-18T11:39:52.718Z,9.40
2022-10-18T11:42:35.598Z,7.20
2022-10-18T11:45:11.653Z,6.30
2022-10-18T11:48:10.283Z,8.20
2022-10-18T11:50:43.061Z,8.80
2022-10-18T11:53:13.868Z,8.40
2022-10-18T11:55:57.385Z,8.70
2022-10-18T11:58:42.891Z,9.60
2022-10-18T12:01:28.501Z,21.20
2022-10-18T12:04:19.290Z,6.60
2022-10-18T12:06:48.904Z,29.00
2022-10-18T12:09:36.501Z,58.30
2022-10-18T12:12:19.475Z,13.50
2022-10-18T12:14:50.215Z,15.70
2022-10-18T12:17:57.226Z,7.00
2022-10-18T12:20:35.197Z,8.50
2022-10-18T12:23:22.171Z,7.30
2022-10-18T12:25:54.239Z,10.20
2022-10-18T12:28:33.797Z,8.90
2022-10-18T12:31:08.767Z,10.20
2022-10-18T12:33:38.508Z,8.70
2022-10-18T12:36:20.978Z,5.30
2022-10-18T12:38:53.192Z,28.50
2022-10-18T12:41:31.340Z,8.40
2022-10-18T12:44:06.025Z,10.90
2022-10-18T12:46:51.763Z,8.10
2022-10-18T12:49:34.120Z,7.20
2022-10-18T12:52:03.669Z,19.80
2022-10-18T12:54:32.506Z,9.30
2022-10-18T12:57:01.149Z,15.10
2022-10-18T12:59:28.341Z,8.50
2022-10-18T13:01:55.863Z,11.50
2022-10-18T13:04:29.153Z,8.00
2022-10-18T13:07:05.301Z,10.10
2022-10-18T13:09:36.338Z,28.20
2022-10-18T13:12:09.335Z,8.20
2022-10-18T13:15:13.473Z,9.70
2022-10-18T13:18:01.618Z,11.40
2022-10-18T13:20:39.565Z,8.90
2022-10-18T13:23:49.481Z,9.20
2022-10-18T13:26:23.102Z,12.20
2022-10-18T13:28:56.698Z,11.70
2022-10-18T13:31:54.967Z,12.60
2022-10-18T13:34:24.730Z,8.70
2022-10-18T13:37:00.531Z,13.00
2022-10-18T13:39:27.717Z,17.60
2022-10-18T13:41:58.104Z,11.50
2022-10-18T13:47:07.458Z,11.70
2022-10-18T13:49:40.674Z,14.90
2022-10-18T13:52:17.418Z,20.80
2022-10-18T13:54:47.161Z,14.50
2022-10-18T13:57:15.109Z,18.80
2022-10-18T14:00:17.060Z,7.90
2022-10-18T14:02:52.017Z,15.50
2022-10-18T14:05:46.825Z,19.00
2022-10-18T14:08:20.382Z,18.80
2022-10-18T14:11:16.497Z,15.20
2022-10-18T14:14:11.160Z,20.40
2022-10-18T14:16:50.336Z,22.60
2022-10-18T14:19:23.386Z,23.10
2022-10-18T14:22:07.543Z,18.40
2022-10-18T14:24:35.703Z,33.90
2022-10-18T14:27:32.995Z,41.30
2022-10-18T14:30:08.275Z,38.90
2022-10-18T14:32:44.182Z,38.70
2022-10-18T14:35:37.633Z,75.40
2022-10-18T14:38:04.729Z,70.70
2022-10-18T14:40:39.148Z,50.50
2022-10-18T14:43:09.181Z,64.10
2022-10-18T14:45:36.147Z,72.40
2022-10-18T14:48:20.905Z,223.30
2022-10-18T14:50:59.310Z,294.90
2022-10-18T14:53:30.934Z,178.00
2022-10-18T14:56:04.513Z,187.30
2022-10-18T14:58:32.057Z,227.20
2022-10-18T15:00:59.449Z,218.90
2022-10-18T15:03:28.416Z,239.00
2022-10-18T15:06:00.484Z,232.80
2022-10-18T15:08:35.831Z,201.20
2022-10-18T15:11:02.840Z,266.80
2022-10-18T15:13:31.742Z,207.40
2022-10-18T15:16:01.039Z,336.90
2022-10-18T15:21:21.453Z,268.50
2022-10-18T15:23:49.537Z,201.60
2022-10-18T15:26:23.011Z,201.40
2022-10-18T15:28:54.080Z,212.40
2022-10-18T15:31:28.745Z,206.20
2022-10-18T15:34:18.706Z,248.00
2022-10-18T15:36:46.130Z,226.70
2022-10-18T15:39:17.056Z,278.50
2022-10-18T15:44:34.719Z,633.60
2022-10-18T15:47:13.978Z,857.40
2022-10-18T15:52:10.817Z,743.70
2022-10-18T15:54:38.341Z,1064.40
2022-10-18T15:57:09.723Z,1079.30
2022-10-18T15:59:37.074Z,953.80
2022-10-18T16:02:04.371Z,1172.40
2022-10-18T16:04:32.488Z,1213.70
2022-10-18T16:06:59.798Z,1223.20
2022-10-18T16:09:28.367Z,569.40
2022-10-18T16:11:58.273Z,965.40
2022-10-18T16:14:30.238Z,897.40
2022-10-18T16:17:01.882Z,928.80
2022-10-18T16:19:30.147Z,904.50
2022-10-18T16:22:01.154Z,866.50
2022-10-18T16:24:33.454Z,1014.70
2022-10-18T16:27:00.628Z,1095.30
2022-10-18T16:29:32.115Z,996.90
2022-10-18T16:32:00.062Z,974.90
2022-10-18T16:34:27.544Z,881.20
2022-10-18T16:36:54.863Z,814.00
2022-10-18T16:39:22.358Z,799.10
2022-10-18T16:41:51.341Z,641.60
2022-10-18T16:44:19.367Z,641.70
2022-10-18T16:46:51.084Z,635.20
2022-10-18T16:49:24.262Z,665.30
2022-10-18T16:51:52.566Z,648.50
2022-10-18T16:54:19.719Z,631.90
2022-10-18T16:56:47.936Z,609.10
2022-10-18T16:59:26.445Z,594.90
2022-10-18T17:01:53.619Z,595.30
2022-10-18T17:04:21.325Z,627.30
2022-10-18T17:06:49.944Z,552.20
2022-10-18T17:09:17.183Z,580.30
2022-10-18T17:11:44.766Z,610.50
2022-10-18T17:14:12.013Z,730.30
2022-10-18T17:16:39.600Z,684.90
2022-10-18T17:19:08.237Z,694.00
2022-10-18T17:21:35.851Z,639.00
2022-10-18T17:24:12.052Z,637.10
2022-10-18T17:26:39.733Z,614.60
2022-10-18T17:29:10.664Z,617.40
2022-10-18T17:31:38.021Z,543.40
2022-10-18T17:34:05.195Z,545.60
2022-10-18T17:36:33.595Z,503.80
2022-10-18T17:39:00.913Z,451.90
2022-10-18T17:41:28.757Z,486.80
2022-10-18T17:43:55.954Z,478.00
2022-10-18T17:46:23.815Z,480.90
2022-10-18T17:48:51.053Z,495.10
2022-10-18T17:51:19.101Z,470.00
2022-10-18T17:53:46.521Z,434.10
2022-10-18T17:56:16.345Z,278.90
2022-10-18T17:58:45.600Z,336.70
2022-10-18T18:01:17.919Z,345.50
2022-10-18T18:03:45.116Z,334.00
2022-10-18T18:06:14.127Z,334.80
2022-10-18T18:08:44.541Z,333.10
2022-10-18T18:11:11.861Z,319.40
2022-10-18T18:13:38.983Z,324.20
2022-10-18T18:16:13.371Z,343.80
2022-10-18T18:18:40.770Z,329.30
2022-10-18T18:21:11.422Z,322.70
2022-10-18T18:23:40.909Z,314.30
2022-10-18T18:26:08.410Z,328.00
2022-10-18T18:28:36.431Z,320.80
2022-10-18T18:31:09.059Z,323.70
2022-10-18T18:33:37.965Z,385.30
2022-10-18T18:36:06.774Z,338.60
2022-10-18T18:38:35.290Z,328.50
2022-10-18T18:41:10.128Z,278.10
2022-10-18T18:43:38.626Z,301.90
2022-10-18T18:46:05.894Z,305.10
2022-10-18T18:48:33.754Z,309.00
2022-10-18T18:51:01.843Z,338.80
2022-10-18T18:53:29.719Z,310.30
2022-10-18T18:56:08.237Z,328.30
2022-10-18T18:58:36.001Z,316.40
2022-10-18T19:01:08.390Z,317.10
2022-10-18T19:03:35.969Z,263.60
2022-10-18T19:06:08.304Z,301.00
2022-10-18T19:08:36.798Z,293.80
2022-10-18T19:11:09.077Z,328.50
2022-10-18T19:13:36.607Z,315.60
2022-10-18T19:16:30.949Z,300.20
2022-10-18T19:19:06.497Z,312.10
2022-10-18T19:21:41.402Z,307.00
2022-10-18T19:24:08.879Z,300.30
2022-10-18T19:26:44.871Z,250.60
2022-10-18T19:29:13.067Z,282.20
2022-10-18T19:31:40.117Z,317.40
2022-10-18T19:34:09.816Z,304.40
2022-10-18T19:36:39.593Z,314.10
2022-10-18T19:39:07.757Z,301.70
2022-10-18T19:41:35.282Z,313.40
2022-10-18T19:44:02.325Z,304.70
2022-10-18T19:46:29.475Z,245.50
2022-10-18T19:48:57.226Z,230.00
2022-10-18T19:51:27.956Z,226.30
2022-10-18T19:53:55.906Z,239.20
2022-10-18T19:56:23.539Z,244.80
2022-10-18T19:58:50.840Z,245.80
2022-10-18T20:01:18.356Z,217.80
2022-10-18T20:03:45.834Z,219.10
2022-10-18T20:06:12.866Z,179.80
2022-10-18T20:08:39.852Z,271.70
2022-10-18T20:11:08.759Z,179.40
2022-10-18T20:13:36.158Z,177.50
2022-10-18T20:16:04.672Z,165.60
2022-10-18T20:18:33.809Z,168.90
2022-10-18T20:21:00.923Z,147.80
2022-10-18T20:23:32.451Z,130.70
2022-10-18T20:26:00.769Z,108.10
2022-10-18T20:28:28.125Z,124.60
2022-10-18T20:31:01.505Z,113.50
2022-10-18T20:33:29.074Z,132.00
2022-10-18T20:35:56.119Z,119.10
2022-10-18T20:38:23.158Z,119.50
2022-10-18T20:40:51.028Z,130.80
2022-10-18T20:43:18.248Z,120.00
2022-10-18T20:45:45.261Z,92.60
2022-10-18T20:48:12.309Z,102.70
2022-10-18T20:50:42.466Z,111.60
2022-10-18T20:53:11.315Z,130.30
2022-10-18T20:55:39.162Z,144.80
2022-10-18T20:58:06.889Z,134.50
2022-10-18T21:00:34.305Z,128.20
2022-10-18T21:03:02.165Z,126.30
2022-10-18T21:05:31.837Z,108.90
2022-10-18T21:07:59.737Z,114.30
2022-10-18T21:10:27.332Z,131.60
2022-10-18T21:12:55.605Z,156.70
2022-10-18T21:15:24.442Z,121.20
2022-10-18T21:17:55.078Z,131.70
2022-10-18T21:20:21.986Z,120.30
2022-10-18T21:22:49.451Z,114.40
2022-10-18T21:25:16.830Z,95.80
2022-10-18T21:27:45.277Z,102.90
2022-10-18T21:32:44.510Z,109.20
2022-10-18T21:35:11.928Z,109.50
2022-10-18T21:37:38.965Z,103.20
2022-10-18T21:40:06.798Z,100.20
2022-10-18T21:42:34.439Z,92.80
2022-10-18T21:45:01.605Z,91.30
2022-10-18T21:47:32.051Z,82.90
2022-10-18T21:49:59.148Z,75.70
2022-10-18T21:52:26.053Z,85.10
2022-10-18T21:54:54.053Z,83.70
2022-10-18T21:57:21.041Z,89.50
2022-10-18T21:59:47.934Z,87.10
2022-10-18T22:02:15.102Z,83.90
2022-10-18T22:04:42.140Z,84.20
2022-10-18T22:07:10.831Z,75.50
2022-10-18T22:09:42.064Z,75.20
2022-10-18T22:12:10.860Z,80.60
2022-10-18T22:14:38.160Z,81.30
2022-10-18T22:17:05.191Z,75.10
2022-10-18T22:19:32.597Z,74.90
2022-10-18T22:21:59.561Z,73.20
2022-10-18T22:24:26.707Z,85.30
2022-10-18T22:26:53.722Z,97.00
2022-10-18T22:29:21.068Z,99.90
2022-10-18T22:31:53.299Z,86.30
2022-10-18T22:34:22.017Z,88.20
2022-10-18T22:36:49.037Z,94.60
2022-10-18T22:39:16.874Z,95.70
2022-10-18T22:41:46.616Z,106.80
2022-10-18T22:44:14.579Z,99.90
2022-10-18T22:46:41.632Z,123.80
2022-10-18T22:49:08.747Z,86.40
2022-10-18T22:54:08.153Z,97.20
2022-10-18T22:56:35.372Z,87.10
2022-10-18T22:59:02.456Z,96.40
2022-10-18T23:01:29.556Z,127.80
2022-10-18T23:03:58.995Z,98.90
2022-10-18T23:06:34.966Z,116.00
2022-10-18T23:09:06.138Z,117.00
2022-10-18T23:11:33.657Z,103.00
2022-10-18T23:14:03.822Z,102.90
2022-10-18T23:16:32.272Z,105.40
2022-10-18T23:18:59.466Z,106.10
2022-10-18T23:21:28.175Z,105.80
2022-10-18T23:23:55.328Z,116.70
2022-10-18T23:26:24.545Z,109.30
2022-10-18T23:28:52.033Z,103.40
2022-10-18T23:31:21.144Z,97.00
2022-10-18T23:33:50.370Z,84.50
2022-10-18T23:36:17.889Z,89.30
2022-10-18T23:38:46.073Z,58.10
2022-10-18T23:41:13.339Z,80.70
2022-10-18T23:43:40.627Z,67.10
2022-10-18T23:46:08.672Z,61.60
2022-10-18T23:48:35.762Z,72.30
2022-10-18T23:51:03.810Z,77.70
2022-10-18T23:53:31.537Z,69.30
2022-10-18T23:56:00.351Z,63.50
2022-10-18T23:58:27.819Z,54.90
